Time;durP1;ratioP1;P1;durP2;ratioP2;P2;SDS_P1;SDS_P2;PMS_P1;PMS_P2;Temp;Humidity;BMP_temperature;BMP_pressure;BME280_temperature;BME280_humidity;BME280_pressure;Samples;Min_cycle;Max_cycle;Signal;HPM_P1;HPM_P2
2022/04/18 00:00:14;;;;;;;18.08;5.10;;;;;;;17.02;65.70;100020.38;2073784;28;20150;-77
2022/04/18 00:01:37;;;;;;;13.80;5.40;;;;;;;17.03;65.94;100021.25;2060566;28;20412;-76
2022/04/18 00:03:03;;;;;;;22.58;6.38;;;;;;;17.05;65.77;100030.97;2071905;28;20065;-76
2022/04/18 00:04:26;;;;;;;13.68;4.63;;;;;;;17.05;65.97;100024.75;2081136;28;20052;-77
2022/04/18 00:05:49;;;;;;;16.35;5.13;;;;;;;17.04;65.70;100031.88;2067341;28;20096;-77
2022/04/18 00:07:10;;;;;;;17.15;5.28;;;;;;;17.04;65.96;100009.66;2062650;28;20209;-76
2022/04/18 00:08:34;;;;;;;17.60;6.07;;;;;;;17.03;65.92;100005.25;2072781;28;20102;-76
2022/04/18 00:09:55;;;;;;;14.48;4.78;;;;;;;17.01;65.94;100021.28;2078516;28;20053;-76
2022/04/18 00:11:17;;;;;;;20.65;5.93;;;;;;;16.99;66.34;100015.13;2064178;28;20050;-77
2022/04/18 00:12:42;;;;;;;12.20;4.57;;;;;;;16.98;66.31;100021.34;2066705;28;20054;-76
2022/04/18 00:14:04;;;;;;;16.63;6.60;;;;;;;16.98;66.08;100020.47;2061808;28;20042;-77
2022/04/18 00:15:26;;;;;;;19.35;6.93;;;;;;;16.98;66.27;100015.16;2083647;28;20041;-77
2022/04/18 00:16:48;;;;;;;17.58;5.53;;;;;;;16.97;66.39;100019.59;2075443;28;20054;-76
2022/04/18 00:18:11;;;;;;;17.27;5.95;;;;;;;16.98;66.06;100020.47;2069563;28;20420;-77
2022/04/18 00:19:33;;;;;;;15.02;5.43;;;;;;;16.96;66.55;100024.97;2071711;28;20047;-77
2022/04/18 00:20:56;;;;;;;11.57;4.93;;;;;;;16.94;66.70;100013.44;2055983;28;20043;-77
2022/04/18 00:22:19;;;;;;;16.73;5.82;;;;;;;16.92;66.54;100021.50;2059881;28;20084;-76
2022/04/18 00:23:40;;;;;;;19.88;5.55;;;;;;;16.91;66.48;100021.53;2062202;28;20428;-77
2022/04/18 00:25:03;;;;;;;14.30;3.97;;;;;;;16.89;66.63;100023.34;2078619;28;20036;-76
2022/04/18 00:26:24;;;;;;;13.13;5.63;;;;;;;16.87;66.79;100020.69;2073471;28;20054;-77
2022/04/18 00:27:49;;;;;;;13.52;3.92;;;;;;;16.88;66.62;100024.25;2054274;28;20093;-77
2022/04/18 00:29:11;;;;;;;17.98;5.45;;;;;;;16.87;66.82;100030.50;2072375;28;20054;-76
2022/04/18 00:30:33;;;;;;;15.27;4.90;;;;;;;16.85;67.00;100022.53;2072694;28;20503;-77
2022/04/18 00:31:54;;;;;;;12.43;5.18;;;;;;;16.83;66.97;100021.69;2081088;28;20060;-77
2022/04/18 00:33:17;;;;;;;17.20;5.78;;;;;;;16.84;67.15;100023.44;2066560;28;20046;-77
2022/04/18 00:34:39;;;;;;;8.57;3.05;;;;;;;16.82;66.94;100033.25;2059624;28;20542;-77
2022/04/18 00:36:03;;;;;;;16.00;5.18;;;;;;;16.80;67.34;100024.44;2068776;28;20045;-76
2022/04/18 00:37:25;;;;;;;14.52;5.00;;;;;;;16.82;66.88;100037.72;2054976;28;20109;-76
2022/04/18 00:38:48;;;;;;;18.08;4.90;;;;;;;16.80;67.19;100035.09;2075808;28;20589;-77
2022/04/18 00:40:12;;;;;;;18.25;5.38;;;;;;;16.79;67.53;100037.78;2078035;28;20075;-78
2022/04/18 00:41:35;;;;;;;19.00;4.88;;;;;;;16.77;67.52;100031.59;2073279;28;20041;-76
2022/04/18 00:43:04;;;;;;;15.07;5.28;;;;;;;16.80;67.25;100034.22;2064256;28;20319;-77
2022/04/18 00:44:26;;;;;;;23.25;6.72;;;;;;;16.80;67.03;100034.22;2077450;28;20057;-77
2022/04/18 00:45:48;;;;;;;12.75;4.90;;;;;;;16.81;66.97;100043.94;2075019;28;20049;-76
2022/04/18 00:47:11;;;;;;;11.52;4.70;;;;;;;16.80;67.54;100034.22;2074681;28;20045;-77
2022/04/18 00:48:32;;;;;;;11.40;4.65;;;;;;;16.79;67.64;100043.13;2077985;28;20495;-76
2022/04/18 00:49:54;;;;;;;19.13;5.85;;;;;;;16.77;67.54;100037.81;2085219;28;20080;-77
2022/04/18 00:51:20;;;;;;;16.83;5.28;;;;;;;16.78;67.32;100044.03;2074337;28;20140;-76
2022/04/18 00:52:42;;;;;;;18.40;6.03;;;;;;;16.76;67.57;100044.06;2063568;28;20046;-76
2022/04/18 00:54:04;;;;;;;14.98;4.47;;;;;;;16.74;67.58;100044.06;2070256;28;20045;-76
2022/04/18 00:55:29;;;;;;;14.30;4.05;;;;;;;16.74;67.66;100054.75;2072246;28;20050;-77
2022/04/18 00:56:54;;;;;;;8.98;3.45;;;;;;;16.73;67.43;100042.34;2070640;28;20072;-76
2022/04/18 00:58:17;;;;;;;18.30;5.50;;;;;;;16.72;67.39;100051.25;2062221;28;20086;-77
2022/04/18 00:59:40;;;;;;;12.43;4.30;;;;;;;16.70;67.76;100042.41;2067307;28;20050;-76
2022/04/18 01:01:02;;;;;;;13.20;3.97;;;;;;;16.69;67.92;100023.75;2063621;28;20049;-77
2022/04/18 01:02:24;;;;;;;12.60;4.93;;;;;;;16.68;67.68;100052.19;2062890;28;20567;-76
2022/04/18 01:03:46;;;;;;;16.27;4.15;;;;;;;16.67;67.63;100036.28;2062191;28;20101;-78
2022/04/18 01:05:09;;;;;;;14.20;4.55;;;;;;;16.66;67.66;100032.72;2064468;28;20056;-76
2022/04/18 01:06:34;;;;;;;13.05;4.75;;;;;;;16.65;67.61;100038.97;2067736;28;20123;-76
2022/04/18 01:07:57;;;;;;;14.25;4.30;;;;;;;16.60;67.81;100046.19;2064486;28;20531;-77
2022/04/18 01:09:23;;;;;;;12.73;5.07;;;;;;;16.59;67.91;100051.50;2067960;28;20050;-76
2022/04/18 01:10:45;;;;;;;10.82;3.60;;;;;;;16.57;67.85;100034.66;2051353;28;20155;-77
2022/04/18 01:12:08;;;;;;;11.57;4.03;;;;;;;16.54;67.76;100048.91;2071280;28;20118;-77
2022/04/18 01:13:51;;;;;;;11.68;4.13;;;;;;;16.55;68.02;100042.66;2064406;28;20054;-76
2022/04/18 01:15:45;;;;;;;16.15;5.38;;;;;;;16.52;67.83;100041.88;2055331;28;20110;-77
2022/04/18 01:17:29;;;;;;;12.68;3.60;;;;;;;16.51;67.84;100041.00;2067763;28;20065;-77
2022/04/18 01:19:15;;;;;;;8.70;3.63;;;;;;;16.48;67.86;100042.81;2064298;28;20149;-76
2022/04/18 01:21:19;;;;;;;12.30;4.32;;;;;;;16.43;67.91;100042.94;2071013;28;20056;-77
2022/04/18 01:23:02;;;;;;;11.77;5.30;;;;;;;16.39;68.00;100043.91;2071956;28;20034;-77
2022/04/18 01:29:46;;;;;;;12.20;4.90;;;;;;;16.31;68.35;100040.50;2064220;28;20094;-76
2022/04/18 01:31:09;;;;;;;13.48;4.32;;;;;;;16.31;68.44;100040.50;2069946;28;20407;-76
2022/04/18 01:32:32;;;;;;;15.40;4.07;;;;;;;16.30;68.29;100052.06;2062750;28;20648;-76
2022/04/18 01:33:53;;;;;;;15.93;5.05;;;;;;;16.29;68.55;100048.50;2064388;28;20080;-76
2022/04/18 01:35:17;;;;;;;9.82;3.78;;;;;;;16.28;68.36;100053.88;2071774;28;20042;-77
2022/04/18 01:36:41;;;;;;;13.32;4.70;;;;;;;16.27;68.47;100055.69;2075424;28;20125;-76
2022/04/18 01:38:07;;;;;;;22.50;9.70;;;;;;;16.26;68.27;100059.25;2061755;28;20053;-77
2022/04/18 01:39:30;;;;;;;16.58;6.22;;;;;;;16.24;68.52;100053.06;2059296;28;20045;-75
2022/04/18 01:40:53;;;;;;;14.63;5.38;;;;;;;16.22;68.58;100062.84;2082572;28;20159;-77
2022/04/18 01:42:16;;;;;;;12.65;7.45;;;;;;;16.22;68.44;100065.50;2065451;28;20563;-76
2022/04/18 01:43:37;;;;;;;16.08;8.85;;;;;;;16.21;68.48;100065.56;2059201;28;20423;-76
2022/04/18 01:45:00;;;;;;;21.85;9.20;;;;;;;16.18;68.63;100063.84;2053719;28;20496;-76
2022/04/18 01:46:24;;;;;;;19.55;8.13;;;;;;;16.18;68.75;100069.16;2051793;28;20145;-76
2022/04/18 01:47:45;;;;;;;17.95;7.72;;;;;;;16.18;68.61;100062.94;2061722;28;20042;-77
2022/04/18 01:49:10;;;;;;;16.70;8.07;;;;;;;16.18;68.67;100062.94;2069776;28;20152;-77
2022/04/18 01:50:31;;;;;;;20.75;7.75;;;;;;;16.19;68.37;100059.38;2067307;28;20068;-78
2022/04/18 01:51:56;;;;;;;13.55;5.97;;;;;;;16.18;68.62;100058.50;2064979;28;20057;-77
2022/04/18 01:53:18;;;;;;;15.57;6.18;;;;;;;16.17;68.35;100058.53;2069789;28;20050;-76
2022/04/18 01:54:40;;;;;;;13.77;5.57;;;;;;;16.16;68.42;100054.09;2065579;28;20412;-76
2022/04/18 01:56:02;;;;;;;9.43;4.40;;;;;;;16.13;68.52;100060.38;2065535;28;20407;-77
2022/04/18 01:57:29;;;;;;;11.35;4.10;;;;;;;16.11;68.42;100059.53;2064006;28;20061;-76
2022/04/18 01:58:52;;;;;;;13.48;4.63;;;;;;;16.12;68.79;100058.63;2067381;28;20402;-76
2022/04/18 02:00:14;;;;;;;18.75;5.00;;;;;;;16.13;68.23;100059.50;2060195;28;20049;-77
2022/04/18 02:01:36;;;;;;;19.83;6.40;;;;;;;16.11;68.57;100055.97;2071595;28;20144;-77
2022/04/18 02:02:58;;;;;;;17.80;5.82;;;;;;;16.09;68.36;100058.66;2067072;28;20088;-76
2022/04/18 02:04:21;;;;;;;17.23;4.80;;;;;;;16.08;68.33;100053.38;2067027;28;20799;-76
2022/04/18 02:05:43;;;;;;;8.48;4.13;;;;;;;16.07;68.31;100059.63;2066910;28;20053;-76
2022/04/18 02:07:09;;;;;;;10.95;5.07;;;;;;;16.08;68.34;100053.38;2050963;28;20069;-76
2022/04/18 02:08:36;;;;;;;11.10;4.63;;;;;;;16.06;68.18;100052.53;2062361;28;20500;-76
2022/04/18 02:09:59;;;;;;;8.30;3.35;;;;;;;16.05;67.87;100064.09;2061208;28;20141;-76
2022/04/18 02:11:21;;;;;;;9.65;3.63;;;;;;;16.05;67.72;100046.31;2053208;28;20564;-77
2022/04/18 02:12:43;;;;;;;15.45;4.03;;;;;;;16.04;67.78;100055.22;2074611;28;20065;-76
2022/04/18 02:14:06;;;;;;;14.18;4.60;;;;;;;16.05;67.37;100059.63;2066616;28;20136;-76
2022/04/18 02:15:28;;;;;;;12.93;4.50;;;;;;;16.05;67.56;100056.97;2053315;28;20478;-76
2022/04/18 02:16:57;;;;;;;5.10;1.67;;;;;;;16.05;67.12;100058.75;2058553;28;20054;-76
2022/04/18 02:18:20;;;;;;;13.00;4.28;;;;;;;16.06;67.12;100057.84;2077735;28;20064;-76
2022/04/18 02:19:42;;;;;;;11.23;4.45;;;;;;;16.08;66.51;100066.69;2057962;28;20134;-77
2022/04/18 02:21:07;;;;;;;15.73;4.30;;;;;;;16.07;66.30;100070.25;2070307;28;20144;-76
2022/04/18 02:22:30;;;;;;;9.05;3.55;;;;;;;16.09;66.10;100064.00;2071977;28;20049;-76
2022/04/18 02:23:53;;;;;;;14.57;4.65;;;;;;;16.08;66.20;100077.34;2061364;28;20054;-76
2022/04/18 02:25:15;;;;;;;10.68;4.28;;;;;;;16.06;65.90;100073.81;2066700;28;20161;-77
2022/04/18 02:26:38;;;;;;;14.50;4.65;;;;;;;16.06;65.77;100073.81;2060760;28;20173;-77
2022/04/18 02:28:06;;;;;;;13.27;4.78;;;;;;;16.04;65.64;100075.63;2062049;28;20046;-76
2022/04/18 02:29:40;;;;;;;13.65;5.45;;;;;;;15.99;65.76;100081.03;2068761;28;20046;-76
2022/04/18 02:31:04;;;;;;;18.52;4.53;;;;;;;15.98;65.65;100086.38;2069761;28;20069;-77
2022/04/18 02:34:07;;;;;;;15.60;4.60;;;;;;;15.90;65.39;100087.41;2055592;28;20047;-76
2022/04/18 02:35:30;;;;;;;11.93;3.72;;;;;;;15.86;65.52;100099.00;2058650;28;20042;-76
2022/04/18 02:36:53;;;;;;;12.13;4.20;;;;;;;15.83;65.27;100093.72;2062385;28;20113;-77
2022/04/18 02:38:18;;;;;;;11.23;4.40;;;;;;;15.80;65.46;100098.22;2075974;28;20053;-76
2022/04/18 02:39:42;;;;;;;11.20;4.22;;;;;;;15.74;65.66;100099.22;2063645;28;20057;-76
2022/04/18 02:41:05;;;;;;;13.07;4.03;;;;;;;15.71;65.82;100099.25;2058883;28;20047;-76
2022/04/18 02:42:26;;;;;;;10.63;4.45;;;;;;;15.69;66.01;100102.81;2071053;28;20069;-77
2022/04/18 02:43:49;;;;;;;7.78;4.15;;;;;;;15.67;65.59;100099.34;2077240;28;20570;-77
2022/04/18 02:45:11;;;;;;;10.95;4.30;;;;;;;15.64;66.02;100096.72;2078874;28;20136;-75
2022/04/18 02:47:00;;;;;;;7.43;4.22;;;;;;;15.61;65.99;100091.47;2073007;28;20119;-75
2022/04/18 02:48:23;;;;;;;13.82;4.93;;;;;;;15.59;66.03;100088.81;2053121;28;20062;-76
2022/04/18 02:49:50;;;;;;;18.45;5.05;;;;;;;15.57;65.99;100087.06;2067845;28;20048;-76
2022/04/18 02:51:13;;;;;;;13.55;4.30;;;;;;;15.54;65.94;100090.66;2055854;28;20053;-76
2022/04/18 02:52:37;;;;;;;11.32;4.10;;;;;;;15.50;65.94;100089.78;2058864;28;20061;-75
2022/04/18 02:54:01;;;;;;;14.77;4.60;;;;;;;15.48;66.05;100091.63;2078050;28;20067;-76
2022/04/18 02:55:25;;;;;;;16.02;5.00;;;;;;;15.45;66.03;100096.97;2063907;28;20078;-76
2022/04/18 02:56:48;;;;;;;13.57;4.72;;;;;;;15.42;66.10;100107.66;2074873;28;20052;-76
2022/04/18 02:58:10;;;;;;;13.48;4.70;;;;;;;15.42;66.23;100109.44;2055975;28;20062;-76
2022/04/18 02:59:32;;;;;;;17.20;4.93;;;;;;;15.40;66.16;100101.47;2066798;28;20448;-76
2022/04/18 03:00:55;;;;;;;12.85;4.57;;;;;;;15.37;66.35;100106.84;2055302;28;20405;-76
2022/04/18 03:02:17;;;;;;;11.82;4.38;;;;;;;15.36;66.35;100101.56;2065224;28;20065;-76
2022/04/18 03:03:40;;;;;;;13.52;5.03;;;;;;;15.34;66.27;100098.91;2064866;28;20069;-76
2022/04/18 03:05:02;;;;;;;17.27;3.97;;;;;;;15.28;66.36;100098.13;2058515;28;20137;-76
2022/04/18 03:06:24;;;;;;;;;;;;;;;15.23;66.75;100100.81;2059583;28;20046;-76
2022/04/18 03:07:47;;;;;;;12.80;4.28;;;;;;;15.17;66.79;100100.91;2072513;28;19921;-76
2022/04/18 03:09:15;;;;;;;13.98;4.47;;;;;;;15.14;66.93;100100.97;2069458;28;20693;-76
2022/04/18 03:12:23;;;;;;;10.60;4.75;;;;;;;15.12;66.89;100097.44;2070988;28;20050;-76
2022/04/18 03:13:46;;;;;;;18.23;4.72;;;;;;;15.13;67.13;100101.88;2074011;28;20038;-76
2022/04/18 03:15:35;;;;;;;14.88;4.28;;;;;;;15.09;67.17;100101.03;2071164;28;20064;-77
2022/04/18 03:16:57;;;;;;;12.57;5.47;;;;;;;15.09;67.20;100111.69;2075164;28;20446;-77
2022/04/18 03:18:19;;;;;;;16.90;6.50;;;;;;;15.09;67.31;100108.13;2063477;28;20050;-76
2022/04/18 03:19:42;;;;;;;9.43;4.40;;;;;;;15.09;67.36;100110.78;2066317;28;20037;-77
2022/04/18 03:21:04;;;;;;;16.17;4.70;;;;;;;15.11;67.39;100104.53;2067068;28;20085;-76
2022/04/18 03:22:26;;;;;;;;;;;;;;;15.10;67.45;100116.06;2057367;28;20456;-76
2022/04/18 03:23:55;;;;;;;17.15;4.97;;;;;;;15.06;67.56;100116.13;2061183;28;20031;-76
2022/04/18 03:25:37;;;;;;;18.50;4.78;;;;;;;15.02;67.77;100112.66;2067081;28;20046;-76
2022/04/18 03:27:02;;;;;;;15.00;4.60;;;;;;;15.01;67.61;100112.66;2065565;28;20045;-76
2022/04/18 03:28:27;;;;;;;11.55;4.00;;;;;;;14.99;67.67;100114.44;2067065;28;20038;-75
2022/04/18 03:29:50;;;;;;;11.15;4.45;;;;;;;14.97;67.87;100113.59;2055056;28;20062;-76
2022/04/18 03:31:18;;;;;;;19.80;4.57;;;;;;;14.97;67.90;100122.44;2054004;28;20054;-76
2022/04/18 03:32:41;;;;;;;12.35;4.30;;;;;;;14.97;68.18;100125.09;2066590;28;20443;-75
2022/04/18 03:34:03;;;;;;;15.10;4.90;;;;;;;14.96;68.30;100125.16;2062961;28;20042;-77
2022/04/18 03:35:25;;;;;;;13.93;4.63;;;;;;;14.98;68.42;100126.88;2053011;28;20061;-75
2022/04/18 03:40:18;;;;;;;13.93;5.05;;;;;;;14.96;68.68;100134.00;2033083;29;20051;-77
2022/04/18 03:41:42;;;;;;;9.35;4.20;;;;;;;14.94;68.69;100133.13;2027031;29;20142;-75
2022/04/18 03:43:05;;;;;;;15.90;4.90;;;;;;;14.92;68.78;100134.03;2067099;28;20083;-76
2022/04/18 03:44:27;;;;;;;13.70;4.05;;;;;;;14.93;68.77;100144.66;2067134;28;20049;-77
2022/04/18 03:45:49;;;;;;;14.32;4.30;;;;;;;14.94;69.06;100146.41;2076260;28;20129;-77
2022/04/18 03:47:12;;;;;;;15.45;4.55;;;;;;;14.93;68.86;100149.09;2070424;28;20488;-77
2022/04/18 03:48:34;;;;;;;12.77;5.05;;;;;;;14.92;68.74;100150.88;2052028;28;20105;-75
2022/04/18 03:49:57;;;;;;;13.27;4.75;;;;;;;14.94;68.94;100153.50;2072233;28;20045;-76
2022/04/18 03:51:18;;;;;;;10.23;3.92;;;;;;;14.93;68.93;100157.06;2065275;28;20042;-75
2022/04/18 03:52:41;;;;;;;11.90;4.18;;;;;;;14.92;69.05;100160.59;2055848;28;20382;-76
2022/04/18 03:54:26;;;;;;;11.57;4.30;;;;;;;14.90;68.94;100165.09;2073711;28;20449;-76
2022/04/18 03:55:49;;;;;;;;;;;;;;;14.91;69.02;100161.50;2071238;28;20058;-75
2022/04/18 03:57:29;;;;;;;11.38;4.28;;;;;;;14.90;68.96;100175.72;2067581;28;19961;-76
2022/04/18 03:58:54;;;;;;;17.50;5.05;;;;;;;14.93;69.06;100179.19;2077403;28;20419;-75
2022/04/18 04:00:18;;;;;;;17.15;5.53;;;;;;;14.99;69.06;100173.81;2066371;28;20419;-75
2022/04/18 04:01:44;;;;;;;10.55;5.00;;;;;;;15.05;69.15;100176.41;2070158;28;20081;-76
2022/04/18 04:03:07;;;;;;;15.18;4.90;;;;;;;15.09;69.17;100178.13;2068506;28;20120;-76
2022/04/18 04:04:36;;;;;;;18.85;5.40;;;;;;;15.16;69.07;100176.28;2064725;28;20061;-76
2022/04/18 04:06:00;;;;;;;12.93;5.40;;;;;;;15.23;68.88;100188.56;2059977;28;20049;-75
2022/04/18 04:07:23;;;;;;;10.40;3.83;;;;;;;15.27;68.71;100192.09;2069257;28;20065;-75
2022/04/18 04:08:59;;;;;;;11.68;5.32;;;;;;;15.29;68.57;100199.16;2072486;28;20042;-76
2022/04/18 04:10:28;;;;;;;12.55;3.88;;;;;;;15.33;68.73;100192.00;2076333;28;20518;-76
2022/04/18 04:11:51;;;;;;;12.80;3.78;;;;;;;15.37;68.55;100193.72;2069227;28;20447;-76
2022/04/18 04:13:15;;;;;;;10.50;3.28;;;;;;;15.43;68.59;100193.63;2059023;28;20058;-75
2022/04/18 04:14:37;;;;;;;7.28;2.85;;;;;;;15.48;68.19;100199.78;2074787;28;20141;-76
2022/04/18 04:15:59;;;;;;;12.50;4.75;;;;;;;15.52;68.20;100206.81;2070498;28;20049;-75
2022/04/18 04:17:26;;;;;;;9.55;4.57;;;;;;;15.56;68.43;100208.56;2065199;28;20042;-75
2022/04/18 04:18:49;;;;;;;10.93;3.45;;;;;;;15.60;68.22;100204.09;2060561;28;20053;-75
2022/04/18 04:20:12;;;;;;;15.73;4.88;;;;;;;15.66;68.06;100214.66;2058631;28;20061;-75
2022/04/18 04:21:36;;;;;;;12.63;4.18;;;;;;;15.71;68.31;100211.03;2059403;28;20057;-75
2022/04/18 04:22:59;;;;;;;13.60;4.63;;;;;;;15.77;68.08;100208.25;2070305;28;20042;-76
2022/04/18 04:24:34;;;;;;;10.48;3.65;;;;;;;15.83;68.34;100207.28;2056813;28;20047;-76
2022/04/18 04:25:57;;;;;;;11.60;4.65;;;;;;;15.88;68.41;100208.97;2060347;28;20045;-76
2022/04/18 04:27:34;;;;;;;13.68;3.80;;;;;;;15.98;68.30;100208.84;2073915;28;20152;-76
2022/04/18 04:28:58;;;;;;;12.23;4.43;;;;;;;16.10;68.15;100208.66;2064646;28;20133;-76
2022/04/18 04:30:41;;;;;;;11.88;4.60;;;;;;;16.23;68.04;100212.88;2072376;28;20066;-76
2022/04/18 04:32:04;;;;;;;12.68;4.63;;;;;;;16.35;67.91;100204.69;2078730;28;20037;-76
2022/04/18 04:33:30;;;;;;;17.50;4.97;;;;;;;16.49;68.00;100209.78;2065065;28;20058;-76
2022/04/18 04:34:53;;;;;;;10.82;4.18;;;;;;;16.60;67.58;100214.06;2076502;28;20038;-77
2022/04/18 04:36:17;;;;;;;13.10;4.45;;;;;;;16.72;67.52;100218.28;2071534;28;20041;-77
2022/04/18 04:37:41;;;;;;;12.95;4.95;;;;;;;16.79;67.63;100214.59;2064390;28;20049;-76
2022/04/18 04:39:26;;;;;;;8.88;4.70;;;;;;;16.89;67.45;100213.50;2072545;28;20079;-77
2022/04/18 04:40:48;;;;;;;14.05;5.95;;;;;;;17.02;67.15;100216.81;2067545;28;20384;-77
2022/04/18 04:42:19;;;;;;;11.82;4.35;;;;;;;17.18;67.16;100220.06;2061864;28;20058;-77
2022/04/18 04:43:41;;;;;;;8.85;4.60;;;;;;;17.32;67.04;100218.91;2057988;28;20041;-77
2022/04/18 04:45:09;;;;;;;12.35;5.50;;;;;;;17.50;66.60;100220.28;2068028;28;20124;-76
2022/04/18 04:46:52;;;;;;;12.85;4.95;;;;;;;17.68;66.40;100219.91;2072671;28;20140;-76
2022/04/18 04:48:16;;;;;;;10.88;4.50;;;;;;;17.84;66.18;100223.13;2070526;28;20144;-76
2022/04/18 04:49:46;;;;;;;11.93;4.70;;;;;;;17.99;66.09;100228.09;2063944;28;20078;-76
2022/04/18 04:51:18;;;;;;;12.73;4.38;;;;;;;18.14;65.88;100225.06;2061933;28;20096;-75
2022/04/18 04:52:40;;;;;;;16.05;5.03;;;;;;;18.30;65.43;100225.59;2068174;28;20479;-76
2022/04/18 04:54:03;;;;;;;17.52;5.03;;;;;;;18.45;65.03;100226.97;2077179;28;20056;-76
2022/04/18 04:55:30;;;;;;;10.55;5.40;;;;;;;18.61;64.65;100228.38;2066351;28;20042;-77
2022/04/18 04:56:53;;;;;;;15.30;5.80;;;;;;;18.76;64.38;100228.00;2054176;28;20141;-77
2022/04/18 04:58:19;;;;;;;19.33;5.57;;;;;;;18.92;64.16;100225.78;2052641;28;20476;-76
2022/04/18 04:59:48;;;;;;;16.15;5.78;;;;;;;19.09;63.95;100226.22;2052910;28;20488;-76
2022/04/18 05:01:12;;;;;;;15.95;6.63;;;;;;;19.28;63.41;100222.09;2067257;28;20500;-76
2022/04/18 05:02:45;;;;;;;14.73;6.28;;;;;;;19.48;62.64;100224.22;2069683;28;20126;-77
2022/04/18 05:04:07;;;;;;;14.30;5.60;;;;;;;19.65;62.12;100218.34;2056761;28;20042;-77
2022/04/18 05:05:31;;;;;;;17.40;6.10;;;;;;;19.79;61.25;100225.03;2067027;28;20149;-76
2022/04/18 05:06:54;;;;;;;13.93;6.05;;;;;;;19.92;60.87;100219.31;2067955;28;20164;-77
2022/04/18 05:08:29;;;;;;;15.30;5.57;;;;;;;20.09;60.09;100225.00;2066419;28;20066;-76
2022/04/18 05:09:51;;;;;;;14.88;4.75;;;;;;;20.23;59.18;100217.38;2067428;28;20491;-76
2022/04/18 05:11:13;;;;;;;15.23;4.72;;;;;;;20.37;59.13;100216.97;2062185;28;20488;-76
2022/04/18 05:12:42;;;;;;;15.80;6.65;;;;;;;20.53;58.51;100216.41;2068712;28;20487;-77
2022/04/18 05:14:05;;;;;;;16.42;4.68;;;;;;;20.69;58.05;100214.06;2068360;28;20128;-76
2022/04/18 05:16:03;;;;;;;12.00;4.30;;;;;;;20.84;57.16;100220.72;2062869;28;20145;-76
2022/04/18 05:17:59;;;;;;;12.40;4.43;;;;;;;21.05;56.72;100222.66;2064371;28;20502;-77
2022/04/18 05:19:22;;;;;;;10.52;4.40;;;;;;;21.22;56.13;100224.72;2071076;28;20547;-76
2022/04/18 05:20:51;;;;;;;11.45;3.80;;;;;;;21.39;55.79;100225.88;2068814;28;20156;-77
2022/04/18 05:22:15;;;;;;;12.82;3.50;;;;;;;21.52;55.18;100233.47;2069785;28;20046;-77
2022/04/18 05:23:38;;;;;;;16.08;3.92;;;;;;;21.67;54.33;100239.13;2067582;28;20050;-77
2022/04/18 05:25:01;;;;;;;11.40;3.33;;;;;;;21.82;53.88;100243.91;2058975;28;20078;-77
2022/04/18 05:26:34;;;;;;;12.60;3.45;;;;;;;22.04;53.20;100235.94;2070225;28;20057;-76
2022/04/18 05:27:57;;;;;;;13.68;3.45;;;;;;;22.23;52.73;100238.75;2076357;28;20698;-77
2022/04/18 05:29:26;;;;;;;11.88;3.35;;;;;;;22.44;51.91;100237.00;2064245;28;20085;-77
2022/04/18 05:30:49;;;;;;;9.13;3.60;;;;;;;22.61;51.50;100235.34;2069810;28;20491;-77
2022/04/18 05:32:11;;;;;;;9.55;3.83;;;;;;;22.77;51.34;100235.59;2063173;28;20097;-77
2022/04/18 05:33:42;;;;;;;14.77;4.20;;;;;;;22.93;50.91;100239.38;2067807;28;20046;-77
2022/04/18 05:35:24;;;;;;;11.88;3.42;;;;;;;23.10;50.69;100232.38;2055949;28;20050;-77
2022/04/18 05:36:47;;;;;;;11.18;3.40;;;;;;;23.21;49.94;100232.78;2083389;28;20399;-77
2022/04/18 05:38:20;;;;;;;11.77;3.47;;;;;;;23.37;49.50;100232.00;2078605;28;20507;-76
2022/04/18 05:39:46;;;;;;;12.15;3.17;;;;;;;23.54;49.05;100225.88;2070344;28;20140;-77
2022/04/18 05:41:09;;;;;;;11.98;3.60;;;;;;;23.66;48.65;100219.03;2064117;28;20155;-77
2022/04/18 05:42:32;;;;;;;9.57;3.20;;;;;;;23.76;47.29;100226.59;2057767;28;20046;-76
2022/04/18 05:44:00;;;;;;;10.07;3.20;;;;;;;23.80;46.33;100222.84;2064205;28;20108;-77
2022/04/18 05:45:30;;;;;;;11.40;3.53;;;;;;;23.90;45.73;100234.03;2062609;28;20047;-77
2022/04/18 05:47:02;;;;;;;;;;;;;;;23.82;44.65;100226.34;2063500;28;20113;-77
2022/04/18 05:48:25;;;;;;;8.48;3.10;;;;;;;23.86;45.26;100226.19;2062679;28;19921;-77
2022/04/18 05:49:52;;;;;;;10.77;3.25;;;;;;;23.95;44.72;100228.47;2067632;28;20046;-76
2022/04/18 05:51:15;;;;;;;12.32;3.33;;;;;;;24.07;44.13;100231.44;2067425;28;20587;-77
2022/04/18 05:52:39;;;;;;;9.98;2.92;;;;;;;24.13;43.54;100227.56;2067423;28;20056;-76
2022/04/18 05:54:21;;;;;;;;;;;;;;;24.16;43.51;100224.69;2060264;28;20117;-77
2022/04/18 05:55:51;;;;;;;15.18;3.78;;;;;;;24.32;43.32;100222.16;2067938;28;20041;-77
2022/04/18 05:57:35;;;;;;;13.05;3.17;;;;;;;24.39;42.85;100229.00;2069592;28;20550;-76
2022/04/18 05:59:00;;;;;;;9.82;3.20;;;;;;;24.45;42.50;100223.31;2053629;28;20038;-77
2022/04/18 06:00:41;;;;;;;11.25;3.47;;;;;;;24.50;42.30;100230.22;2088225;28;20053;-76
2022/04/18 06:02:04;;;;;;;7.30;3.08;;;;;;;24.51;42.25;100233.78;2067699;28;20427;-77
2022/04/18 06:03:29;;;;;;;11.75;3.38;;;;;;;24.57;41.92;100236.16;2070815;28;20053;-76
2022/04/18 06:04:54;;;;;;;10.20;2.90;;;;;;;24.70;41.58;100228.31;2069836;28;20045;-77
2022/04/18 06:06:36;;;;;;;15.95;3.40;;;;;;;24.84;41.42;100236.59;2087613;28;20045;-77
2022/04/18 06:07:58;;;;;;;11.73;4.32;;;;;;;24.96;41.34;100238.69;2070802;28;20044;-77
2022/04/18 06:09:21;;;;;;;9.73;3.80;;;;;;;25.04;40.89;100241.88;2070589;28;20500;-77
2022/04/18 06:10:43;;;;;;;10.15;3.83;;;;;;;25.12;40.58;100247.75;2052960;28;20097;-78
2022/04/18 06:12:35;;;;;;;11.88;2.92;;;;;;;25.22;40.04;100248.13;2070609;28;20120;-78
2022/04/18 06:13:57;;;;;;;8.65;2.72;;;;;;;25.22;39.78;100250.81;2069608;28;20137;-78
2022/04/18 06:15:21;;;;;;;12.13;3.00;;;;;;;25.25;39.53;100254.25;2060688;28;20562;-77
2022/04/18 06:16:44;;;;;;;15.00;3.80;;;;;;;25.21;39.94;100247.25;2070891;28;20069;-78
2022/04/18 06:18:07;;;;;;;11.65;3.28;;;;;;;25.32;39.75;100249.41;2069212;28;20062;-77
2022/04/18 06:19:28;;;;;;;10.48;3.38;;;;;;;25.38;39.41;100247.25;2074684;28;20072;-78
2022/04/18 06:20:53;;;;;;;12.75;3.90;;;;;;;25.45;39.60;100255.03;2060886;28;20130;-77
2022/04/18 06:22:17;;;;;;;8.98;2.95;;;;;;;25.60;39.76;100254.22;2065873;28;20092;-77
2022/04/18 06:23:41;;;;;;;8.25;2.88;;;;;;;25.82;39.36;100259.31;2063487;28;20515;-77
2022/04/18 06:25:30;;;;;;;9.57;2.92;;;;;;;25.99;38.73;100252.00;2068634;28;20057;-77
2022/04/18 06:26:53;;;;;;;5.00;2.53;;;;;;;26.00;39.01;100255.56;2068517;28;20136;-77
2022/04/18 06:28:19;;;;;;;8.73;2.45;;;;;;;26.09;38.88;100258.66;2058461;28;20050;-77
2022/04/18 06:29:42;;;;;;;13.73;3.45;;;;;;;26.17;39.06;100261.81;2059377;28;20046;-78
2022/04/18 06:31:06;;;;;;;10.55;2.63;;;;;;;26.25;38.88;100258.69;2057210;28;20050;-77
2022/04/18 06:32:37;;;;;;;9.63;2.80;;;;;;;26.40;38.09;100267.75;2064072;28;20042;-78
2022/04/18 06:34:00;;;;;;;8.50;2.53;;;;;;;26.53;38.00;100258.81;2058642;28;20116;-78
2022/04/18 06:35:24;;;;;;;12.77;2.90;;;;;;;26.59;37.79;100265.72;2065649;28;20038;-77
2022/04/18 06:36:48;;;;;;;9.13;2.90;;;;;;;26.72;36.79;100265.88;2063576;28;20049;-78
2022/04/18 06:38:32;;;;;;;10.70;2.95;;;;;;;26.82;37.19;100267.97;2061718;28;20042;-76
2022/04/18 06:39:58;;;;;;;12.57;2.80;;;;;;;26.92;36.24;100271.88;2067582;28;20057;-77
2022/04/18 06:41:33;;;;;;;8.57;2.55;;;;;;;27.01;35.71;100272.31;2070821;28;20313;-77
2022/04/18 06:42:57;;;;;;;14.77;2.88;;;;;;;26.98;35.92;100277.94;2057861;28;20050;-77
2022/04/18 06:44:26;;;;;;;11.50;2.95;;;;;;;26.85;35.35;100275.88;2069140;28;20052;-77
2022/04/18 06:45:50;;;;;;;8.15;2.72;;;;;;;26.84;35.69;100276.88;2059749;28;20790;-77
2022/04/18 06:47:13;;;;;;;14.63;2.90;;;;;;;26.90;35.00;100284.69;2063868;28;20096;-78
2022/04/18 06:48:54;;;;;;;9.30;2.42;;;;;;;27.02;35.42;100282.19;2081745;28;20532;-78